createdAt,value
2018-01-11T00:02:19.883Z,11.43
2018-01-11T00:04:47.319Z,12.13
2018-01-11T00:07:14.768Z,10.50
2018-01-11T00:09:42.195Z,10.37
2018-01-11T00:12:09.643Z,11.13
2018-01-11T00:14:37.075Z,10.90
2018-01-11T00:17:04.500Z,11.93
2018-01-11T00:19:32.696Z,11.43
2018-01-11T00:22:00.123Z,12.00
2018-01-11T00:24:27.556Z,12.37
2018-01-11T00:26:55.008Z,12.03
2018-01-11T00:29:22.447Z,12.03
2018-01-11T00:31:49.884Z,11.50
2018-01-11T00:34:17.321Z,10.67
2018-01-11T00:36:45.528Z,11.37
2018-01-11T00:39:12.951Z,11.23
2018-01-11T00:41:40.401Z,11.63
2018-01-11T00:44:07.815Z,15.20
2018-01-11T00:46:35.246Z,11.60
2018-01-11T00:49:03.440Z,11.90
2018-01-11T00:51:30.867Z,11.77
2018-01-11T00:53:58.296Z,11.07
2018-01-11T00:56:25.787Z,11.40
2018-01-11T00:58:53.230Z,11.97
2018-01-11T01:01:20.667Z,11.13
2018-01-11T01:03:48.115Z,11.13
2018-01-11T01:06:15.539Z,11.03
2018-01-11T01:08:42.979Z,11.30
2018-01-11T01:11:10.408Z,11.50
2018-01-11T01:13:37.844Z,11.80
2018-01-11T01:16:05.293Z,12.20
2018-01-11T01:18:32.720Z,11.13
2018-01-11T01:21:00.152Z,11.57
2018-01-11T01:23:28.355Z,12.40
2018-01-11T01:25:55.784Z,11.47
2018-01-11T01:28:23.249Z,12.30
2018-01-11T01:30:50.676Z,12.33
2018-01-11T01:33:18.119Z,12.20
2018-01-11T01:35:45.540Z,12.27
2018-01-11T01:38:12.972Z,12.93
2018-01-11T01:40:40.401Z,10.70
2018-01-11T01:43:08.593Z,11.53
2018-01-11T01:45:36.017Z,11.80
2018-01-11T01:48:03.446Z,10.73
2018-01-11T01:50:30.878Z,12.70
2018-01-11T01:52:59.081Z,14.13
2018-01-11T01:55:26.542Z,12.23
2018-01-11T01:57:53.960Z,14.20
2018-01-11T02:00:21.384Z,13.40
2018-01-11T02:02:48.805Z,12.67
2018-01-11T02:05:16.231Z,13.03
2018-01-11T03:25:24.612Z,19.00
2018-01-11T03:27:52.061Z,18.57
2018-01-11T03:30:19.488Z,16.50
2018-01-11T03:32:46.924Z,15.47
2018-01-11T03:35:14.343Z,18.20
2018-01-11T03:37:42.536Z,18.33
2018-01-11T03:40:09.963Z,16.77
2018-01-11T03:42:37.406Z,16.80
2018-01-11T03:45:04.835Z,18.97
2018-01-11T03:47:33.020Z,17.97
2018-01-11T03:50:00.479Z,24.27
2018-01-11T03:52:27.928Z,21.93
2018-01-11T03:54:55.360Z,15.43
2018-01-11T03:57:22.780Z,18.40
2018-01-11T03:59:50.207Z,22.27
2018-01-11T04:02:17.633Z,26.03
2018-01-11T04:04:45.823Z,22.17
2018-01-11T04:07:13.252Z,22.67
2018-01-11T04:09:40.691Z,21.00
2018-01-11T04:12:08.864Z,18.57
2018-01-11T04:14:36.296Z,17.27
2018-01-11T04:17:03.752Z,19.93
2018-01-11T04:19:31.181Z,16.87
2018-01-11T04:21:58.615Z,34.37
2018-01-11T04:24:26.036Z,25.03
2018-01-11T04:26:54.235Z,28.03
2018-01-11T04:29:21.675Z,26.30
2018-01-11T04:31:49.103Z,17.80
2018-01-11T04:34:16.543Z,17.50
2018-01-11T04:36:43.982Z,17.23
2018-01-11T04:39:11.423Z,18.83
2018-01-11T04:41:39.604Z,24.07
2018-01-11T04:44:07.024Z,25.93
2018-01-11T04:46:34.458Z,27.63
2018-01-11T04:49:02.672Z,24.70
2018-01-11T04:51:30.089Z,29.47
2018-01-11T04:53:57.524Z,24.00
2018-01-11T04:56:24.945Z,22.73
2018-01-11T04:58:52.379Z,19.43
2018-01-11T05:01:20.561Z,17.43
2018-01-11T05:03:47.996Z,22.00
2018-01-11T05:06:15.431Z,23.97
2018-01-11T05:08:42.875Z,24.87
2018-01-11T05:11:10.315Z,26.57
2018-01-11T05:13:37.748Z,20.63
2018-01-11T05:16:05.178Z,21.47
2018-01-11T05:18:33.368Z,21.43
2018-01-11T05:21:00.795Z,23.80
2018-01-11T05:23:28.231Z,25.07
2018-01-11T05:25:55.672Z,26.53
2018-01-11T05:28:23.873Z,30.87
2018-01-11T05:30:51.314Z,29.03
2018-01-11T05:33:18.767Z,35.03
2018-01-11T05:35:46.196Z,32.27
2018-01-11T05:38:13.648Z,38.57
2018-01-11T05:40:41.076Z,35.47
2018-01-11T05:43:08.500Z,42.10
2018-01-11T05:45:35.935Z,36.80
2018-01-11T05:48:03.353Z,33.27
2018-01-11T05:50:30.783Z,31.00
2018-01-11T05:52:58.217Z,26.87
2018-01-11T05:55:25.640Z,26.23
2018-01-11T05:57:53.076Z,26.23
2018-01-11T06:00:20.505Z,28.40
2018-01-11T06:02:47.939Z,45.03
2018-01-11T06:05:15.363Z,31.73
2018-01-11T06:07:42.792Z,28.63
2018-01-11T06:10:10.980Z,27.70
2018-01-11T06:12:38.424Z,22.83
2018-01-11T06:15:05.857Z,21.30
2018-01-11T06:17:33.312Z,18.73
2018-01-11T06:20:00.727Z,20.73
2018-01-11T06:22:28.152Z,18.97
2018-01-11T06:24:56.353Z,20.13
2018-01-11T06:27:23.782Z,19.93
2018-01-11T06:29:51.221Z,19.40
2018-01-11T06:32:18.648Z,21.67
2018-01-11T06:34:46.092Z,19.90
2018-01-11T06:37:13.592Z,22.10
2018-01-11T06:39:41.024Z,21.20
2018-01-11T06:42:08.463Z,22.13
2018-01-11T06:44:35.884Z,46.50
2018-01-11T06:47:03.324Z,24.63
2018-01-11T06:49:30.784Z,20.80
2018-01-11T06:51:58.228Z,21.60
2018-01-11T06:54:25.690Z,21.73
2018-01-11T06:56:53.113Z,21.03
2018-01-11T06:59:20.520Z,20.70
2018-01-11T07:01:47.970Z,23.63
2018-01-11T07:04:15.397Z,43.20
2018-01-11T07:06:42.831Z,20.93
2018-01-11T07:09:10.251Z,21.77
2018-01-11T07:11:38.436Z,22.90
2018-01-11T07:14:05.870Z,23.33
2018-01-11T07:16:33.301Z,23.10
2018-01-11T07:19:00.727Z,22.43
2018-01-11T07:21:28.156Z,25.37
2018-01-11T07:23:56.348Z,23.03
2018-01-11T07:26:23.771Z,25.87
2018-01-11T07:28:51.213Z,25.00
2018-01-11T07:31:18.684Z,25.07
2018-01-11T07:33:46.104Z,26.03
2018-01-11T07:36:13.574Z,25.37
2018-01-11T07:38:40.972Z,24.60
2018-01-11T07:41:08.408Z,21.53
2018-01-11T07:43:36.600Z,24.57
2018-01-11T07:46:04.024Z,24.53
2018-01-11T07:48:31.451Z,26.30
2018-01-11T07:50:58.893Z,26.90
2018-01-11T07:53:27.076Z,25.53
2018-01-11T07:55:54.516Z,26.70
2018-01-11T07:58:21.956Z,24.63
2018-01-11T08:00:49.384Z,24.60
2018-01-11T08:03:16.834Z,24.47
2018-01-11T08:05:44.256Z,23.20
2018-01-11T08:08:11.690Z,23.30
2018-01-11T08:10:39.877Z,24.10
2018-01-11T08:13:07.322Z,19.80
2018-01-11T08:15:34.740Z,20.47
2018-01-11T08:18:02.172Z,23.00
2018-01-11T08:20:30.360Z,22.43
2018-01-11T08:22:57.814Z,21.23
2018-01-11T08:25:25.260Z,20.93
2018-01-11T08:27:52.688Z,22.90
2018-01-11T08:30:20.132Z,27.67
2018-01-11T08:32:47.567Z,24.63
2018-01-11T08:35:14.996Z,24.67
2018-01-11T08:37:42.424Z,24.73
2018-01-11T08:40:10.640Z,23.43
2018-01-11T08:42:38.056Z,23.27
2018-01-11T08:45:05.488Z,26.13
2018-01-11T08:47:32.921Z,26.77
2018-01-11T08:50:00.749Z,23.10
2018-01-11T08:52:28.158Z,24.17
2018-01-11T08:54:55.584Z,27.90
2018-01-11T08:57:23.037Z,23.90
2018-01-11T08:59:50.460Z,24.13
2018-01-11T09:02:17.896Z,25.83
2018-01-11T09:04:45.328Z,23.73
2018-01-11T09:07:12.757Z,22.57
2018-01-11T09:09:40.948Z,22.40
2018-01-11T09:12:08.379Z,21.37
2018-01-11T09:14:35.837Z,20.80
2018-01-11T09:17:03.248Z,22.37
2018-01-11T09:19:31.501Z,18.97
2018-01-11T09:21:58.868Z,20.53
2018-01-11T09:24:26.312Z,19.33
2018-01-11T09:26:54.495Z,18.60
2018-01-11T09:29:21.921Z,17.50
2018-01-11T09:31:49.364Z,18.10
2018-01-11T09:34:16.795Z,18.47
2018-01-11T09:36:44.222Z,16.97
2018-01-11T09:39:12.418Z,15.83
2018-01-11T09:41:39.841Z,14.67
2018-01-11T09:44:07.283Z,14.67
2018-01-11T09:46:34.712Z,15.07
2018-01-11T09:49:02.205Z,15.30
2018-01-11T09:51:29.624Z,15.13
2018-01-11T09:53:57.066Z,16.47
2018-01-11T09:56:24.491Z,16.00
2018-01-11T09:58:51.919Z,16.50
2018-01-11T10:01:20.123Z,16.93
2018-01-11T10:03:47.574Z,18.53
2018-01-11T10:06:14.997Z,18.10
2018-01-11T10:08:42.412Z,18.67
2018-01-11T10:11:09.832Z,18.50
2018-01-11T10:13:38.064Z,16.83
2018-01-11T10:16:06.255Z,16.77
2018-01-11T10:18:33.672Z,14.37
2018-01-11T10:21:01.115Z,15.37
2018-01-11T10:23:28.539Z,17.00
2018-01-11T10:25:55.975Z,17.10
2018-01-11T10:28:23.398Z,16.40
2018-01-11T10:30:50.825Z,16.23
2018-01-11T10:33:18.343Z,16.60
2018-01-11T10:35:45.796Z,18.90
2018-01-11T10:38:13.244Z,17.67
2018-01-11T10:40:40.668Z,17.30
2018-01-11T10:43:08.105Z,17.67
2018-01-11T10:45:35.528Z,15.33
2018-01-11T10:48:02.967Z,16.43
2018-01-11T10:50:30.391Z,15.30
2018-01-11T10:52:58.588Z,16.63
2018-01-11T10:55:26.004Z,15.47
2018-01-11T10:57:53.436Z,14.70
2018-01-11T11:00:21.631Z,15.73
2018-01-11T11:02:49.826Z,15.40
2018-01-11T11:05:17.245Z,14.57
2018-01-11T11:07:44.668Z,14.20
2018-01-11T11:10:12.102Z,13.93
2018-01-11T11:12:39.531Z,12.87
2018-01-11T11:15:06.968Z,13.13
2018-01-11T11:17:35.896Z,14.43
2018-01-11T11:20:03.343Z,13.30
2018-01-11T11:22:30.751Z,13.33
2018-01-11T11:24:58.976Z,13.97
2018-01-11T11:27:26.375Z,12.30
2018-01-11T11:29:53.830Z,13.30
2018-01-11T11:32:21.236Z,12.80
2018-01-11T11:34:49.445Z,14.10
2018-01-11T11:37:16.871Z,13.70
2018-01-11T11:39:44.297Z,13.90
2018-01-11T11:42:11.725Z,14.30
2018-01-11T11:44:39.920Z,12.87
2018-01-11T11:47:07.348Z,12.80
2018-01-11T11:49:34.815Z,11.60
2018-01-11T11:52:02.253Z,11.87
2018-01-11T11:54:29.680Z,12.20
2018-01-11T11:56:57.116Z,12.97
2018-01-11T11:59:24.604Z,12.17
2018-01-11T12:01:52.025Z,12.70
2018-01-11T12:04:19.464Z,12.17
2018-01-11T12:06:46.879Z,11.63
2018-01-11T12:09:14.325Z,12.17
2018-01-11T12:11:41.773Z,10.80
2018-01-11T12:14:09.204Z,11.23
2018-01-11T12:16:36.650Z,11.83
2018-01-11T12:19:04.084Z,12.57
2018-01-11T12:21:31.512Z,11.57
2018-01-11T12:23:59.792Z,11.37
2018-01-11T12:26:27.238Z,9.70
2018-01-11T12:28:54.659Z,10.00
2018-01-11T12:31:22.101Z,10.03
2018-01-11T12:33:49.530Z,9.97
2018-01-11T12:36:17.731Z,10.13
2018-01-11T12:38:45.153Z,8.73
2018-01-11T12:41:12.587Z,8.43
2018-01-11T12:43:40.012Z,8.23
2018-01-11T12:46:08.212Z,8.77
2018-01-11T12:48:35.647Z,9.10
2018-01-11T12:51:03.114Z,8.00
2018-01-11T12:53:30.532Z,7.50
2018-01-11T12:55:57.947Z,7.57
2018-01-11T12:58:25.398Z,7.40
2018-01-11T13:00:52.828Z,7.67
2018-01-11T13:03:21.040Z,7.33
2018-01-11T13:05:48.475Z,6.77
2018-01-11T13:08:15.912Z,7.40
2018-01-11T13:10:43.337Z,6.60
2018-01-11T13:13:10.761Z,7.23
2018-01-11T13:15:38.191Z,5.73
2018-01-11T13:18:06.411Z,6.30
2018-01-11T13:20:33.831Z,5.57
2018-01-11T13:23:01.283Z,5.63
2018-01-11T13:25:28.672Z,6.00
2018-01-11T13:27:56.888Z,7.33
2018-01-11T13:30:24.301Z,9.43
2018-01-11T13:32:51.736Z,7.87
2018-01-11T13:35:19.164Z,7.37
2018-01-11T13:37:46.585Z,7.00
2018-01-11T13:40:14.789Z,7.50
2018-01-11T13:42:42.208Z,7.37
2018-01-11T13:45:09.632Z,6.40
2018-01-11T13:47:37.852Z,8.50
2018-01-11T13:50:05.292Z,9.07
2018-01-11T13:52:32.723Z,8.30
2018-01-11T13:55:00.163Z,7.27
2018-01-11T13:57:27.596Z,6.13
2018-01-11T13:59:55.015Z,6.57
2018-01-11T14:02:22.460Z,6.67
2018-01-11T14:04:50.640Z,6.73
2018-01-11T14:07:18.068Z,6.10
2018-01-11T14:09:45.518Z,5.67
2018-01-11T14:12:12.952Z,5.83
2018-01-11T14:14:41.148Z,6.70
2018-01-11T14:17:08.632Z,6.60
2018-01-11T14:19:36.060Z,6.37
2018-01-11T14:22:03.516Z,5.37
2018-01-11T14:24:30.931Z,4.60
2018-01-11T14:26:58.348Z,5.03
2018-01-11T14:29:25.828Z,3.83
2018-01-11T14:31:53.252Z,4.37
2018-01-11T14:34:20.680Z,4.27
2018-01-11T14:36:48.112Z,4.90
2018-01-11T14:39:15.556Z,4.53
2018-01-11T14:41:43.004Z,5.60
2018-01-11T14:44:10.419Z,6.10
2018-01-11T14:46:37.900Z,7.73
2018-01-11T14:49:05.349Z,7.60
2018-01-11T14:51:32.805Z,7.90
2018-01-11T14:54:01.728Z,7.63
2018-01-11T14:56:29.156Z,8.03
2018-01-11T14:58:57.351Z,9.10
2018-01-11T15:01:24.806Z,9.90
2018-01-11T15:03:52.195Z,8.83
2018-01-11T15:06:20.392Z,9.00
2018-01-11T15:08:47.803Z,9.43
2018-01-11T15:11:15.234Z,10.13
2018-01-11T15:13:42.659Z,9.70
2018-01-11T15:16:10.097Z,10.20
2018-01-11T15:18:37.507Z,10.83
2018-01-11T15:21:04.932Z,11.47
2018-01-11T15:23:32.352Z,11.80
2018-01-11T15:26:00.617Z,11.63
2018-01-11T15:28:27.983Z,12.13
2018-01-11T15:30:55.409Z,11.87
2018-01-11T15:33:23.596Z,11.60
2018-01-11T15:35:51.020Z,11.60
2018-01-11T15:38:18.449Z,11.70
2018-01-11T15:40:46.652Z,11.77
2018-01-11T15:43:14.081Z,12.80
2018-01-11T15:45:41.540Z,12.83
2018-01-11T15:48:08.936Z,12.73
2018-01-11T15:50:36.365Z,13.47
2018-01-11T15:53:04.569Z,14.23
2018-01-11T15:55:32.003Z,14.37
2018-01-11T15:57:59.432Z,14.63
2018-01-11T16:00:26.886Z,15.57
2018-01-11T16:02:54.365Z,15.07
2018-01-11T16:05:21.793Z,14.60
2018-01-11T16:07:49.224Z,15.17
2018-01-11T16:10:16.661Z,15.97
2018-01-11T16:12:44.080Z,15.37
2018-01-11T16:15:11.536Z,15.60
2018-01-11T16:17:39.773Z,17.37
2018-01-11T16:20:07.198Z,15.20
2018-01-11T16:22:34.620Z,16.47
2018-01-11T16:25:02.068Z,16.07
2018-01-11T16:27:29.489Z,15.60
2018-01-11T16:29:56.912Z,17.27
2018-01-11T16:32:24.357Z,16.57
2018-01-11T16:34:51.791Z,16.67
2018-01-11T16:37:20.028Z,18.70
2018-01-11T16:39:47.463Z,17.63
2018-01-11T16:42:14.901Z,17.10
2018-01-11T16:44:42.294Z,17.40
2018-01-11T16:47:09.771Z,17.87
2018-01-11T16:49:37.178Z,18.33
2018-01-11T16:52:04.616Z,19.57
2018-01-11T16:54:32.037Z,19.67
2018-01-11T16:57:00.248Z,19.70
2018-01-11T16:59:27.720Z,26.47
2018-01-11T17:01:55.152Z,23.10
2018-01-11T17:04:22.564Z,23.43
2018-01-11T17:06:50.004Z,21.67
2018-01-11T17:09:17.441Z,19.83
2018-01-11T17:11:44.896Z,21.63
2018-01-11T17:14:12.332Z,21.60
2018-01-11T17:16:39.768Z,21.47
2018-01-11T17:19:07.214Z,21.63
2018-01-11T17:21:34.643Z,21.83
2018-01-11T17:24:02.112Z,19.83
2018-01-11T17:26:29.543Z,21.47
2018-01-11T17:28:56.968Z,24.60
2018-01-11T17:31:24.407Z,21.40
2018-01-11T17:33:51.823Z,25.63
2018-01-11T17:36:19.253Z,27.70
2018-01-11T17:38:47.452Z,23.90
2018-01-11T17:41:14.896Z,24.90
2018-01-11T17:43:42.344Z,24.63
2018-01-11T17:46:09.804Z,24.27
2018-01-11T17:48:37.229Z,24.77
2018-01-11T17:51:04.652Z,25.43
2018-01-11T17:53:32.149Z,28.77
2018-01-11T17:55:59.582Z,26.67
2018-01-11T17:58:27.016Z,26.93
2018-01-11T18:00:54.464Z,26.80
2018-01-11T18:03:21.888Z,25.20
2018-01-11T18:05:49.310Z,25.47
2018-01-11T18:08:16.747Z,25.60
2018-01-11T18:10:44.172Z,25.30
2018-01-11T18:13:12.381Z,26.33
2018-01-11T18:15:39.792Z,25.73
2018-01-11T18:18:07.992Z,25.17
2018-01-11T18:20:35.431Z,23.83
2018-01-11T18:23:03.630Z,22.70
2018-01-11T18:25:31.143Z,22.93
2018-01-11T18:27:58.575Z,22.70
2018-01-11T18:30:26.013Z,21.60
2018-01-11T18:32:53.458Z,22.17
2018-01-11T18:35:20.901Z,21.40
2018-01-11T18:37:48.316Z,22.20
2018-01-11T18:40:15.764Z,22.63
2018-01-11T18:42:43.182Z,21.73
2018-01-11T18:45:11.388Z,21.50
2018-01-11T18:47:38.815Z,22.53
2018-01-11T18:50:06.255Z,22.00
2018-01-11T18:52:33.686Z,21.03
2018-01-11T18:55:01.142Z,21.73
2018-01-11T18:57:28.575Z,20.67
2018-01-11T18:59:56.056Z,19.67
2018-01-11T19:02:23.488Z,19.43
2018-01-11T19:04:50.948Z,20.27
2018-01-11T19:07:18.375Z,23.33
2018-01-11T19:09:45.828Z,26.00
2018-01-11T19:12:13.257Z,27.03
2018-01-11T19:14:40.696Z,25.87
2018-01-11T19:17:08.131Z,52.00
2018-01-11T19:19:35.558Z,21.50
2018-01-11T19:22:03.761Z,25.37
2018-01-11T19:24:31.283Z,88.57
2018-01-11T19:26:58.724Z,25.77
2018-01-11T19:29:26.179Z,35.13
2018-01-11T19:31:53.591Z,49.97
2018-01-11T19:34:21.786Z,54.73
2018-01-11T19:36:49.220Z,20.53
2018-01-11T19:39:16.640Z,29.43
2018-01-11T19:41:44.071Z,73.43
2018-01-11T19:44:12.267Z,22.83
2018-01-11T19:46:39.692Z,21.47
2018-01-11T19:49:07.124Z,33.97
2018-01-11T19:51:34.584Z,22.43
2018-01-11T19:54:02.078Z,19.90
2018-01-11T19:56:29.494Z,20.70
2018-01-11T19:58:56.936Z,22.97
2018-01-11T20:01:24.410Z,22.03
2018-01-11T20:03:51.828Z,33.23
2018-01-11T20:06:19.288Z,23.37
2018-01-11T20:08:46.762Z,26.27
2018-01-11T20:11:14.956Z,18.80
2018-01-11T20:13:42.397Z,21.43
2018-01-11T20:16:09.866Z,21.57
2018-01-11T20:18:37.295Z,20.60
2018-01-11T20:21:04.752Z,19.87
2018-01-11T20:23:32.186Z,21.57
2018-01-11T20:25:59.614Z,20.67
2018-01-11T20:28:27.052Z,21.43
2018-01-11T20:30:54.519Z,47.83
2018-01-11T20:33:21.994Z,51.43
2018-01-11T20:35:50.184Z,39.87
2018-01-11T20:38:17.611Z,23.17
2018-01-11T20:40:45.095Z,20.87
2018-01-11T20:43:12.560Z,21.80
2018-01-11T20:45:39.968Z,21.20
2018-01-11T20:48:07.412Z,23.50
2018-01-11T20:50:34.883Z,22.10
2018-01-11T20:53:02.354Z,21.30
2018-01-11T20:55:29.776Z,21.07
2018-01-11T20:57:57.972Z,20.40
2018-01-11T21:00:25.406Z,23.20
2018-01-11T21:02:52.868Z,21.93
2018-01-11T21:05:20.316Z,21.10
2018-01-11T21:07:47.757Z,22.87
2018-01-11T21:10:15.225Z,22.67
2018-01-11T21:12:42.687Z,29.07
2018-01-11T21:15:10.876Z,24.37
2018-01-11T21:17:38.308Z,23.77
2018-01-11T21:20:05.809Z,22.03
2018-01-11T21:22:33.228Z,21.30
2018-01-11T21:25:00.660Z,21.63
2018-01-11T21:27:28.072Z,21.20
2018-01-11T21:29:55.513Z,23.03
2018-01-11T21:32:22.983Z,25.17
2018-01-11T21:34:50.444Z,23.57
2018-01-11T21:37:17.880Z,21.77
2018-01-11T21:39:45.324Z,22.43
2018-01-11T21:42:12.763Z,22.60
2018-01-11T21:44:40.224Z,21.60
2018-01-11T21:47:07.640Z,20.73
2018-01-11T21:49:35.120Z,21.27
2018-01-11T21:52:02.533Z,21.13
2018-01-11T21:54:29.973Z,22.27
2018-01-11T21:56:57.403Z,20.50
2018-01-11T21:59:24.836Z,22.23
2018-01-11T22:01:52.312Z,20.30
2018-01-11T22:04:19.736Z,20.97
2018-01-11T22:06:47.196Z,20.43
2018-01-11T22:09:14.616Z,21.10
2018-01-11T22:11:42.044Z,20.57
2018-01-11T22:14:09.476Z,19.00
2018-01-11T22:16:36.923Z,20.13
2018-01-11T22:19:04.340Z,20.30
2018-01-11T22:21:31.832Z,18.97
2018-01-11T22:23:59.256Z,20.30
2018-01-11T22:26:26.710Z,20.63
2018-01-11T22:28:54.139Z,19.47
2018-01-11T22:31:21.588Z,19.63
2018-01-11T22:33:49.024Z,20.60
2018-01-11T22:36:16.452Z,20.50
2018-01-11T22:38:43.884Z,19.63
2018-01-11T22:41:11.326Z,21.83
2018-01-11T22:43:38.751Z,18.87
2018-01-11T22:46:06.952Z,21.80
2018-01-11T22:48:34.367Z,20.40
2018-01-11T22:51:01.801Z,21.07
2018-01-11T22:53:29.224Z,21.43
2018-01-11T22:55:57.431Z,22.40
2018-01-11T22:58:24.875Z,20.63
2018-01-11T23:00:52.300Z,20.73
2018-01-11T23:03:19.740Z,20.37
2018-01-11T23:05:47.179Z,22.27
2018-01-11T23:08:14.620Z,19.73
2018-01-11T23:10:42.044Z,21.53
2018-01-11T23:13:09.479Z,20.77
2018-01-11T23:15:37.680Z,20.57
2018-01-11T23:18:05.141Z,19.40
2018-01-11T23:20:32.571Z,18.73
2018-01-11T23:22:59.999Z,19.23
2018-01-11T23:25:27.433Z,19.27
2018-01-11T23:27:54.865Z,18.40
2018-01-11T23:30:22.292Z,18.50
2018-01-11T23:32:49.733Z,17.50
2018-01-11T23:35:17.939Z,17.97
2018-01-11T23:37:45.370Z,18.23
2018-01-11T23:40:12.812Z,16.63
2018-01-11T23:42:40.243Z,17.17
2018-01-11T23:45:07.708Z,17.87
2018-01-11T23:47:35.127Z,16.97
2018-01-11T23:50:03.402Z,17.33
2018-01-11T23:52:30.808Z,17.37
2018-01-11T23:54:58.240Z,17.77
2018-01-11T23:57:26.428Z,17.87
2018-01-11T23:59:53.859Z,16.97
